Time;durP1;ratioP1;P1;durP2;ratioP2;P2;SDS_P1;SDS_P2;PMS_P1;PMS_P2;Temp;Humidity;BMP_temperature;BMP_pressure;BME280_temperature;BME280_humidity;BME280_pressure;Samples;Min_cycle;Max_cycle;Signal;HPM_P1;HPM_P2
2021/08/21 04:32:08;;;;;;;7.03;6.33;;;13.80;99.90;;;;;;5308919;23;20507;-79
2021/08/21 04:34:35;;;;;;;10.83;7.30;;;13.70;99.90;;;;;;4957236;29;20996;-82
2021/08/21 04:37:03;;;;;;;7.53;6.73;;;13.80;99.90;;;;;;4957676;29;20176;-82
2021/08/21 04:39:29;;;;;;;9.37;7.27;;;13.80;99.90;;;;;;4958086;29;20416;-81
2021/08/21 04:41:54;;;;;;;8.83;6.93;;;13.80;99.90;;;;;;4957748;28;20432;-81
2021/08/21 04:44:20;;;;;;;8.17;7.40;;;13.90;99.90;;;;;;4956346;29;20187;-82
2021/08/21 04:46:46;;;;;;;9.00;7.70;;;13.90;99.90;;;;;;4957547;29;20252;-82
2021/08/21 04:49:11;;;;;;;7.93;7.13;;;14.00;99.90;;;;;;4956029;29;20177;-81
2021/08/21 04:51:37;;;;;;;7.23;6.53;;;14.00;99.90;;;;;;4956334;28;20197;-81
2021/08/21 04:54:02;;;;;;;8.37;7.50;;;14.10;99.90;;;;;;4955754;29;20781;-82
2021/08/21 04:56:28;;;;;;;8.17;7.37;;;14.10;99.90;;;;;;4955502;29;20201;-82
2021/08/21 04:58:53;;;;;;;9.60;6.87;;;14.20;99.90;;;;;;4954951;29;20323;-81
2021/08/21 05:01:20;;;;;;;9.20;7.40;;;14.30;99.90;;;;;;4955513;28;20665;-82
2021/08/21 05:03:46;;;;;;;8.00;6.87;;;14.30;99.90;;;;;;4955245;29;20188;-82
2021/08/21 05:06:11;;;;;;;7.50;6.80;;;14.40;99.90;;;;;;4957013;29;20416;-82
2021/08/21 05:08:37;;;;;;;8.20;7.20;;;14.50;99.90;;;;;;4957736;29;20191;-82
2021/08/21 05:11:02;;;;;;;10.40;6.60;;;14.50;99.90;;;;;;4957136;28;20780;-82
2021/08/21 05:13:28;;;;;;;7.73;6.77;;;14.60;99.90;;;;;;4956718;29;20584;-83
2021/08/21 05:15:53;;;;;;;8.90;8.00;;;14.80;99.90;;;;;;4956676;29;20177;-81
2021/08/21 05:18:26;;;;;;;8.10;7.40;;;14.80;99.90;;;;;;4955780;29;20177;-83
2021/08/21 05:20:54;;;;;;;9.87;7.67;;;14.90;99.90;;;;;;4955707;28;20205;-82
2021/08/21 05:23:19;;;;;;;8.47;7.60;;;15.10;99.90;;;;;;4956021;29;20419;-81
2021/08/21 05:25:46;;;;;;;7.20;6.50;;;15.20;99.90;;;;;;4955560;29;20423;-83
2021/08/21 05:28:15;;;;;;;9.10;7.27;;;15.40;99.90;;;;;;4954654;29;20169;-81
2021/08/21 05:30:41;;;;;;;7.77;6.50;;;15.50;99.90;;;;;;4956226;28;20466;-83
2021/08/21 05:33:12;;;;;;;7.50;6.80;;;15.70;99.90;;;;;;4958868;29;20412;-82
2021/08/21 05:35:38;;;;;;;8.20;7.40;;;15.90;99.90;;;;;;4959531;29;20420;-82
2021/08/21 05:38:05;;;;;;;6.87;6.27;;;16.00;99.90;;;;;;4959215;29;20447;-81
2021/08/21 05:40:32;;;;;;;14.73;7.63;;;16.20;99.90;;;;;;4959579;28;20508;-82
2021/08/21 05:42:58;;;;;;;7.70;6.90;;;16.30;99.90;;;;;;4957836;29;20460;-83
2021/08/21 05:45:25;;;;;;;8.40;7.60;;;16.50;99.90;;;;;;4957785;29;20459;-83
2021/08/21 05:47:51;;;;;;;8.93;7.70;;;16.60;99.90;;;;;;4957209;29;20471;-82
2021/08/21 05:50:18;;;;;;;8.00;7.20;;;16.70;99.90;;;;;;4956860;29;21012;-83
2021/08/21 05:52:44;;;;;;;7.90;6.57;;;16.80;99.90;;;;;;4957166;28;20439;-82
2021/08/21 05:55:09;;;;;;;10.67;7.30;;;16.90;99.90;;;;;;4956959;29;20914;-82
2021/08/21 05:57:35;;;;;;;7.70;7.00;;;17.00;99.90;;;;;;4957110;29;20503;-82
2021/08/21 06:00:01;;;;;;;6.60;6.00;;;17.20;99.90;;;;;;4957602;29;20181;-83
2021/08/21 06:02:26;;;;;;;8.40;6.67;;;17.30;99.90;;;;;;4958257;28;20597;-82
2021/08/21 06:04:52;;;;;;;8.53;6.03;;;17.40;99.90;;;;;;4959062;29;20180;-83
2021/08/21 06:07:18;;;;;;;13.90;6.40;;;17.60;99.90;;;;;;4958292;29;20188;-83
2021/08/21 06:09:44;;;;;;;7.80;6.50;;;17.90;99.90;;;;;;4956960;29;20476;-82
2021/08/21 06:12:09;;;;;;;8.10;6.57;;;18.10;99.90;;;;;;4957760;28;20279;-82
2021/08/21 06:14:37;;;;;;;7.27;6.57;;;18.30;99.90;;;;;;4959111;29;20184;-82
2021/08/21 06:17:07;;;;;;;8.10;7.20;;;18.50;99.90;;;;;;4957429;29;20184;-82
2021/08/21 06:19:34;;;;;;;9.77;8.03;;;18.60;99.90;;;;;;4957632;29;20491;-82
2021/08/21 06:21:59;;;;;;;12.90;7.47;;;18.70;99.90;;;;;;4958486;28;20442;-82
2021/08/21 06:24:25;;;;;;;12.40;8.27;;;18.80;99.90;;;;;;4959111;29;20423;-83
2021/08/21 06:26:50;;;;;;;8.70;7.50;;;19.00;99.90;;;;;;4957451;29;20185;-82
2021/08/21 06:29:16;;;;;;;8.67;7.80;;;19.10;99.90;;;;;;4956967;29;20191;-82
2021/08/21 06:31:41;;;;;;;10.07;6.80;;;19.20;99.90;;;;;;4956526;28;20216;-82
2021/08/21 06:34:07;;;;;;;8.57;6.60;;;19.20;99.90;;;;;;4957082;29;20184;-82
2021/08/21 06:36:32;;;;;;;7.63;6.80;;;19.30;99.90;;;;;;4956655;29;20184;-82
2021/08/21 06:38:58;;;;;;;8.47;6.73;;;19.60;99.90;;;;;;4957459;29;20212;-82
2021/08/21 06:41:23;;;;;;;9.87;6.70;;;20.00;99.90;;;;;;4956869;28;20670;-84
2021/08/21 06:43:49;;;;;;;8.30;6.77;;;20.30;99.90;;;;;;4955034;28;20304;-82
2021/08/21 06:46:15;;;;;;;16.00;6.97;;;20.60;99.90;;;;;;4956706;29;20232;-82
2021/08/21 06:48:40;;;;;;;7.93;6.30;;;20.70;99.90;;;;;;4954908;29;20187;-82
2021/08/21 06:51:06;;;;;;;9.17;6.37;;;20.60;99.90;;;;;;4956372;28;20216;-82
2021/08/21 06:53:32;;;;;;;9.10;7.27;;;20.60;99.90;;;;;;4956525;29;20177;-83
2021/08/21 06:56:01;;;;;;;7.93;6.30;;;20.50;99.90;;;;;;4956537;29;20172;-82
2021/08/21 06:58:28;;;;;;;6.87;6.10;;;20.40;99.90;;;;;;4956424;29;20228;-82
2021/08/21 07:00:57;;;;;;;8.70;7.03;;;20.60;99.90;;;;;;4956760;28;20933;-83
2021/08/21 07:03:23;;;;;;;10.70;6.43;;;20.80;99.90;;;;;;4958268;29;20416;-80
2021/08/21 07:05:49;;;;;;;10.70;6.00;;;20.90;99.90;;;;;;4958955;29;21022;-80
2021/08/21 07:08:14;;;;;;;7.10;6.50;;;21.00;99.90;;;;;;4957417;29;21062;-80
2021/08/21 07:10:40;;;;;;;6.17;5.57;;;21.20;99.90;;;;;;4957269;28;20816;-80
2021/08/21 07:13:06;;;;;;;8.80;5.70;;;21.90;99.90;;;;;;4958118;29;20180;-79
2021/08/21 07:15:32;;;;;;;6.63;6.03;;;22.40;99.90;;;;;;4958417;29;20271;-80
2021/08/21 07:17:58;;;;;;;9.80;6.40;;;22.80;99.90;;;;;;4959354;29;20781;-80
2021/08/21 07:20:24;;;;;;;9.10;6.10;;;23.10;99.90;;;;;;4957116;29;20184;-80
2021/08/21 07:22:50;;;;;;;6.20;5.30;;;23.30;99.90;;;;;;4958131;28;20518;-80
2021/08/21 07:25:15;;;;;;;6.70;5.17;;;23.80;99.90;;;;;;4958851;29;20455;-80
2021/08/21 07:27:41;;;;;;;9.00;6.20;;;24.00;99.90;;;;;;4958827;29;20184;-81
2021/08/21 07:30:07;;;;;;;8.03;5.47;;;24.40;99.90;;;;;;4958403;29;20196;-80
2021/08/21 07:32:34;;;;;;;7.13;5.40;;;24.60;99.90;;;;;;4957832;28;20216;-81
2021/08/21 07:35:00;;;;;;;5.87;5.27;;;24.80;99.90;;;;;;4958373;29;20404;-80
2021/08/21 07:37:26;;;;;;;5.87;5.00;;;24.90;99.90;;;;;;4958008;29;20423;-80
2021/08/21 07:39:51;;;;;;;5.20;4.80;;;25.10;99.90;;;;;;4958560;29;20412;-81
2021/08/21 07:42:17;;;;;;;5.43;4.93;;;25.20;99.90;;;;;;4959036;28;20203;-79
2021/08/21 07:44:42;;;;;;;6.60;6.10;;;25.40;99.90;;;;;;4958770;29;20177;-81
2021/08/21 07:47:08;;;;;;;6.50;5.43;;;25.60;99.90;;;;;;4957207;29;20247;-80
2021/08/21 07:49:33;;;;;;;8.60;5.60;;;25.90;99.90;;;;;;4958918;29;20271;-81
2021/08/21 07:51:59;;;;;;;6.37;5.17;;;26.20;99.90;;;;;;4958620;28;20252;-81
2021/08/21 07:54:24;;;;;;;5.87;5.07;;;26.20;99.90;;;;;;4958482;28;20173;-81
2021/08/21 07:56:50;;;;;;;5.07;4.63;;;26.40;99.90;;;;;;4958764;29;20181;-81
2021/08/21 07:59:16;;;;;;;5.20;4.80;;;26.60;99.90;;;;;;4957556;29;20308;-81
2021/08/21 08:01:41;;;;;;;5.50;4.67;;;26.20;99.90;;;;;;4958293;28;20433;-81
2021/08/21 08:04:07;;;;;;;5.30;4.73;;;26.20;99.90;;;;;;4958106;29;20256;-81
2021/08/21 08:06:32;;;;;;;9.90;4.57;;;26.70;99.90;;;;;;4958202;29;20175;-81
2021/08/21 08:08:58;;;;;;;19.83;5.40;;;27.10;99.90;;;;;;4958239;29;20267;-82
2021/08/21 08:11:24;;;;;;;4.50;4.13;;;26.90;99.90;;;;;;4957991;28;20223;-82
2021/08/21 08:13:49;;;;;;;5.30;4.43;;;27.00;99.90;;;;;;4958601;29;20260;-83
2021/08/21 08:16:15;;;;;;;4.27;3.97;;;27.20;99.90;;;;;;4956833;29;20212;-81
2021/08/21 08:18:40;;;;;;;3.80;3.50;;;27.30;99.90;;;;;;4957896;29;20221;-83
2021/08/21 08:21:06;;;;;;;4.80;4.27;;;27.40;99.90;;;;;;4957604;28;20652;-82
2021/08/21 08:23:31;;;;;;;4.20;3.87;;;27.30;99.90;;;;;;4957660;29;20267;-82
2021/08/21 08:25:57;;;;;;;6.63;4.50;;;27.20;99.90;;;;;;4957335;29;20216;-82
2021/08/21 08:28:22;;;;;;;4.23;3.93;;;27.40;99.90;;;;;;4957732;29;20181;-82
2021/08/21 08:30:48;;;;;;;4.60;4.20;;;27.60;99.90;;;;;;4957219;28;20709;-83
2021/08/21 08:33:13;;;;;;;7.23;4.63;;;27.80;99.90;;;;;;4957575;29;20185;-82
2021/08/21 08:35:39;;;;;;;4.70;4.03;;;27.80;99.90;;;;;;4956882;29;20271;-83
2021/08/21 08:38:04;;;;;;;5.83;4.07;;;28.00;99.90;;;;;;4957020;29;20172;-82
2021/08/21 08:40:30;;;;;;;5.43;4.40;;;27.90;99.90;;;;;;4956629;28;20248;-82
2021/08/21 08:43:01;;;;;;;5.20;4.57;;;28.00;99.90;;;;;;4957862;29;20259;-82
2021/08/21 08:45:27;;;;;;;4.67;4.23;;;27.90;99.90;;;;;;4957464;29;20189;-83
2021/08/21 08:47:53;;;;;;;4.57;4.20;;;27.70;99.90;;;;;;4958542;29;20464;-83
2021/08/21 08:50:19;;;;;;;4.63;3.93;;;28.10;99.90;;;;;;4957285;29;20221;-82
2021/08/21 08:52:45;;;;;;;4.50;4.10;;;28.50;99.90;;;;;;4958488;28;21013;-83
2021/08/21 08:55:11;;;;;;;5.47;4.77;;;28.70;99.90;;;;;;4957812;29;20665;-83
2021/08/21 08:57:42;;;;;;;5.77;4.73;;;28.90;99.90;;;;;;4957057;29;20552;-82
2021/08/21 09:00:13;;;;;;;5.23;4.47;;;28.90;99.90;;;;;;4959091;29;20439;-82
2021/08/21 09:02:42;;;;;;;5.60;4.50;;;28.70;99.90;;;;;;4957675;28;20592;-83
2021/08/21 09:05:10;;;;;;;4.83;3.90;;;29.10;99.90;;;;;;4957075;28;20431;-83
2021/08/21 09:07:51;;;;;;;4.27;3.90;;;29.40;99.90;;;;;;4961126;29;20475;-83
2021/08/21 09:10:24;;;;;;;4.83;4.37;;;29.30;99.90;;;;;;4960298;29;20477;-82
2021/08/21 09:13:04;;;;;;;5.03;4.53;;;29.80;99.90;;;;;;4959702;28;20495;-83
2021/08/21 09:15:31;;;;;;;4.80;4.30;;;30.00;99.90;;;;;;4960125;29;20470;-82
2021/08/21 09:18:10;;;;;;;4.20;3.90;;;29.80;99.90;;;;;;4959392;29;20408;-82
2021/08/21 09:20:48;;;;;;;5.13;3.83;;;30.20;99.90;;;;;;4959767;28;20471;-83
2021/08/21 09:23:36;;;;;;;4.73;4.10;;;30.10;99.90;;;;;;4959069;29;20849;-82
2021/08/21 09:26:09;;;;;;;4.30;3.97;;;30.00;99.90;;;;;;4959420;29;20471;-82
2021/08/21 09:28:38;;;;;;;4.43;4.13;;;30.20;99.90;;;;;;4958637;29;20427;-81
2021/08/21 09:31:08;;;;;;;6.93;4.50;;;30.20;99.90;;;;;;4960387;28;20479;-82
2021/08/21 09:33:36;;;;;;;3.90;3.60;;;30.10;99.90;;;;;;4960257;29;20408;-82
2021/08/21 09:36:03;;;;;;;5.17;3.80;;;30.30;99.90;;;;;;4960851;29;21000;-83
2021/08/21 09:38:33;;;;;;;8.20;4.97;;;30.80;99.90;;;;;;4959728;29;20432;-82
2021/08/21 09:41:01;;;;;;;6.63;3.77;;;30.40;99.90;;;;;;4961167;28;20513;-82
2021/08/21 09:43:31;;;;;;;6.43;4.53;;;31.20;99.90;;;;;;4959996;29;20424;-82
2021/08/21 09:46:12;;;;;;;6.73;4.20;;;30.80;99.90;;;;;;4960616;29;20960;-82
2021/08/21 09:48:58;;;;;;;4.40;4.00;;;31.20;99.90;;;;;;4960959;29;20507;-81
2021/08/21 09:51:36;;;;;;;4.00;3.70;;;31.80;99.90;;;;;;4960975;28;20472;-82
2021/08/21 09:54:05;;;;;;;5.70;4.27;;;32.10;99.90;;;;;;4959698;29;20799;-82
2021/08/21 09:56:32;;;;;;;4.97;3.73;;;32.50;99.90;;;;;;4959224;29;20428;-82
2021/08/21 09:58:59;;;;;;;4.60;4.30;;;32.90;99.90;;;;;;4958212;29;20428;-81
2021/08/21 10:01:26;;;;;;;4.53;4.23;;;33.30;99.90;;;;;;4960070;28;20439;-82
2021/08/21 10:03:52;;;;;;;4.57;4.20;;;33.40;99.90;;;;;;4960162;29;21077;-82
2021/08/21 10:06:18;;;;;;;6.37;4.80;;;33.20;99.90;;;;;;4960079;29;20424;-81
2021/08/21 10:08:44;;;;;;;3.97;3.67;;;33.00;99.90;;;;;;4958948;29;20176;-81
2021/08/21 10:11:11;;;;;;;5.30;4.43;;;33.20;99.90;;;;;;4959654;28;20495;-81
2021/08/21 10:13:40;;;;;;;10.23;4.83;;;33.40;99.90;;;;;;4960163;29;20413;-82
2021/08/21 10:16:09;;;;;;;7.43;5.07;;;33.20;99.90;;;;;;4960128;29;20420;-81
2021/08/21 10:18:35;;;;;;;8.03;4.63;;;32.70;99.90;;;;;;4959923;28;20409;-81
2021/08/21 10:21:01;;;;;;;5.20;4.87;;;32.60;99.90;;;;;;4959855;28;20432;-82
2021/08/21 10:23:27;;;;;;;5.60;5.10;;;32.20;99.90;;;;;;4959839;29;20937;-81
2021/08/21 10:26:07;;;;;;;5.23;4.73;;;32.20;99.90;;;;;;4958918;29;20223;-82
2021/08/21 10:28:39;;;;;;;5.80;5.30;;;32.60;99.90;;;;;;4959798;29;20244;-81
2021/08/21 10:31:06;;;;;;;5.10;4.60;;;32.50;99.90;;;;;;4959265;28;20475;-81
2021/08/21 10:33:55;;;;;;;5.90;5.40;;;32.70;99.90;;;;;;4959250;29;20417;-80
2021/08/21 10:36:43;;;;;;;7.00;5.00;;;33.10;99.90;;;;;;4959528;28;20419;-81
2021/08/21 10:39:14;;;;;;;6.03;4.90;;;32.80;99.90;;;;;;4959634;29;20468;-82
2021/08/21 10:41:40;;;;;;;7.73;4.80;;;32.70;99.90;;;;;;4958423;28;20443;-81
2021/08/21 10:44:05;;;;;;;5.60;5.20;;;32.60;99.90;;;;;;4959287;29;20861;-81
2021/08/21 10:46:31;;;;;;;5.30;4.80;;;32.90;99.90;;;;;;4959268;29;20256;-81
2021/08/21 10:48:59;;;;;;;5.60;5.10;;;33.00;99.90;;;;;;4958186;29;20203;-81
2021/08/21 10:51:34;;;;;;;5.00;4.60;;;33.10;99.90;;;;;;4957868;28;20208;-81
2021/08/21 10:54:20;;;;;;;6.00;4.93;;;33.20;99.90;;;;;;4957264;29;20444;-81
2021/08/21 10:56:46;;;;;;;6.30;5.70;;;33.00;99.90;;;;;;4956721;29;20436;-81
2021/08/21 10:59:12;;;;;;;5.93;5.43;;;33.00;99.90;;;;;;4957883;29;20412;-81
2021/08/21 11:01:37;;;;;;;7.60;5.60;;;33.10;99.90;;;;;;4957242;28;20200;-81
2021/08/21 11:04:03;;;;;;;5.70;5.20;;;33.30;99.90;;;;;;4957663;29;20173;-81
2021/08/21 11:06:34;;;;;;;7.27;5.87;;;33.60;99.90;;;;;;4957472;29;20240;-81
2021/08/21 11:09:02;;;;;;;6.63;5.50;;;33.60;99.90;;;;;;4956992;29;20187;-82
2021/08/21 11:11:39;;;;;;;5.30;4.80;;;33.40;99.90;;;;;;4956597;28;20476;-81
2021/08/21 11:14:21;;;;;;;5.93;5.37;;;33.10;99.90;;;;;;4957080;29;20412;-81
2021/08/21 11:16:54;;;;;;;5.60;5.10;;;32.60;99.90;;;;;;4957996;29;20408;-81
2021/08/21 11:19:22;;;;;;;5.43;4.93;;;32.50;99.90;;;;;;4957813;29;20430;-81
2021/08/21 11:21:50;;;;;;;6.80;5.47;;;32.30;99.90;;;;;;4958349;28;20436;-81
2021/08/21 11:24:51;;;;;;;15.13;5.80;;;32.30;99.90;;;;;;4958185;29;20918;-81
2021/08/21 11:27:22;;;;;;;6.70;5.67;;;32.10;99.90;;;;;;4939235;28;20431;-81
2021/08/21 11:30:09;;;;;;;6.43;5.83;;;31.90;99.90;;;;;;4957584;28;20459;-81
2021/08/21 11:32:54;;;;;;;5.53;5.03;;;32.00;99.90;;;;;;4957978;28;20455;-80
2021/08/21 11:35:26;;;;;;;9.90;5.57;;;31.80;99.90;;;;;;4957028;29;20475;-81
2021/08/21 11:37:59;;;;;;;6.33;5.40;;;31.90;99.90;;;;;;4957552;29;20762;-81
2021/08/21 11:40:31;;;;;;;5.80;4.63;;;31.70;99.90;;;;;;4957772;29;20412;-81
2021/08/21 11:42:57;;;;;;;4.80;4.50;;;31.40;99.90;;;;;;4957550;29;20424;-81
2021/08/21 11:45:23;;;;;;;8.50;5.30;;;31.40;99.90;;;;;;4957734;29;20416;-81
2021/08/21 11:47:53;;;;;;;5.27;4.87;;;31.20;99.90;;;;;;4958790;29;20195;-81
2021/08/21 11:50:21;;;;;;;5.87;5.10;;;30.40;99.90;;;;;;4956758;29;20466;-82
2021/08/21 11:52:48;;;;;;;5.60;5.10;;;30.30;99.90;;;;;;4956882;28;20996;-82
2021/08/21 11:55:14;;;;;;;5.40;5.00;;;30.70;99.90;;;;;;4955267;29;20942;-82
2021/08/21 11:57:44;;;;;;;6.77;6.27;;;30.90;99.90;;;;;;4956517;29;20495;-81
2021/08/21 12:00:15;;;;;;;6.40;5.07;;;31.30;99.90;;;;;;4957392;29;20421;-81
2021/08/21 12:02:56;;;;;;;5.77;5.30;;;31.50;99.90;;;;;;4957441;28;20525;-81
2021/08/21 12:05:26;;;;;;;8.23;6.17;;;31.80;99.90;;;;;;4957519;29;20457;-80
2021/08/21 12:07:52;;;;;;;6.57;5.90;;;31.60;99.90;;;;;;4956339;29;20447;-81
2021/08/21 12:10:17;;;;;;;5.37;4.97;;;31.60;99.90;;;;;;4957147;29;21028;-81
2021/08/21 12:12:43;;;;;;;7.33;4.73;;;31.50;99.90;;;;;;4957317;28;20205;-82
2021/08/21 12:15:09;;;;;;;6.60;5.93;;;31.50;99.90;;;;;;4956984;29;20583;-81
2021/08/21 12:17:35;;;;;;;7.13;5.37;;;31.40;99.90;;;;;;4957086;29;20184;-81
2021/08/21 12:20:02;;;;;;;5.30;4.80;;;31.50;99.90;;;;;;4957127;28;20416;-82
2021/08/21 12:22:29;;;;;;;5.90;4.93;;;31.20;99.90;;;;;;4956735;28;20470;-81
2021/08/21 12:24:56;;;;;;;5.30;4.80;;;31.00;99.90;;;;;;4956877;29;20420;-82
2021/08/21 12:27:23;;;;;;;7.40;5.27;;;30.90;99.90;;;;;;4956501;29;20456;-81
2021/08/21 12:30:03;;;;;;;5.17;4.77;;;30.90;99.90;;;;;;4956850;29;20550;-81
2021/08/21 12:32:29;;;;;;;4.63;4.23;;;30.80;99.90;;;;;;4956738;28;20992;-82
2021/08/21 12:35:16;;;;;;;4.83;4.47;;;30.80;99.90;;;;;;4956463;29;20421;-81
2021/08/21 12:37:42;;;;;;;5.70;5.20;;;30.70;99.90;;;;;;4956384;29;20204;-81
2021/08/21 12:40:16;;;;;;;4.00;3.80;;;30.60;99.90;;;;;;4956513;28;20451;-82
2021/08/21 12:42:43;;;;;;;4.80;4.40;;;30.80;99.90;;;;;;4960426;28;20443;-82
2021/08/21 12:45:24;;;;;;;6.07;4.87;;;30.80;99.90;;;;;;4960492;29;20438;-81
2021/08/21 12:47:50;;;;;;;5.43;5.03;;;30.90;99.90;;;;;;4960336;29;20428;-81
2021/08/21 12:50:16;;;;;;;5.17;4.70;;;30.90;99.90;;;;;;4959935;29;20463;-82
2021/08/21 12:52:44;;;;;;;5.70;4.47;;;30.70;99.90;;;;;;4960131;28;20451;-81
2021/08/21 12:55:11;;;;;;;7.43;4.57;;;30.60;99.90;;;;;;4960305;29;20416;-81
2021/08/21 12:57:38;;;;;;;4.53;4.03;;;30.80;99.90;;;;;;4959931;29;20411;-82
2021/08/21 13:00:16;;;;;;;4.90;4.50;;;30.80;99.90;;;;;;4959841;29;20822;-82
2021/08/21 13:02:46;;;;;;;6.47;5.00;;;30.60;99.90;;;;;;4959831;28;20438;-82
2021/08/21 13:05:14;;;;;;;4.60;4.30;;;30.70;99.90;;;;;;4960254;29;20424;-82
2021/08/21 13:08:05;;;;;;;5.83;4.30;;;30.40;99.90;;;;;;4959657;29;20424;-82
2021/08/21 13:10:32;;;;;;;5.00;4.57;;;30.40;99.90;;;;;;4951869;28;20512;-81
2021/08/21 13:12:58;;;;;;;4.93;4.57;;;30.50;99.90;;;;;;4959272;29;20412;-82
2021/08/21 13:15:24;;;;;;;3.83;3.63;;;30.40;99.90;;;;;;4959577;29;20440;-82
2021/08/21 13:17:49;;;;;;;5.23;4.63;;;30.50;99.90;;;;;;4959087;29;20451;-81
2021/08/21 13:20:17;;;;;;;4.30;4.00;;;30.60;99.90;;;;;;4959313;29;20189;-81
2021/08/21 13:22:46;;;;;;;4.77;4.47;;;30.60;99.90;;;;;;4959250;28;20255;-82
2021/08/21 13:25:12;;;;;;;4.07;3.67;;;30.60;99.90;;;;;;4959450;29;20427;-81
2021/08/21 13:27:38;;;;;;;4.60;4.20;;;30.70;99.90;;;;;;4959703;29;20925;-82
2021/08/21 13:30:05;;;;;;;5.30;4.37;;;30.60;99.90;;;;;;4959086;29;20499;-82
2021/08/21 13:32:30;;;;;;;4.77;4.40;;;30.70;99.90;;;;;;4959001;28;20479;-82
2021/08/21 13:34:56;;;;;;;4.53;4.23;;;30.60;99.90;;;;;;4958642;29;20412;-81
2021/08/21 13:37:22;;;;;;;4.83;4.43;;;30.60;99.90;;;;;;4958106;29;20234;-82
2021/08/21 13:39:47;;;;;;;4.60;4.20;;;30.60;99.90;;;;;;4958199;29;20180;-81
2021/08/21 13:42:14;;;;;;;6.73;4.40;;;30.20;99.90;;;;;;4958210;28;20211;-81
2021/08/21 13:44:39;;;;;;;4.83;4.43;;;30.00;99.90;;;;;;4958617;29;20208;-82
2021/08/21 13:47:05;;;;;;;6.63;4.50;;;29.90;99.90;;;;;;4958501;29;21008;-82
2021/08/21 13:49:36;;;;;;;6.43;5.53;;;29.90;99.90;;;;;;4958218;29;20187;-82
2021/08/21 13:52:03;;;;;;;4.87;4.03;;;29.70;99.90;;;;;;4957693;28;20712;-82
2021/08/21 13:54:29;;;;;;;4.87;4.43;;;29.70;99.90;;;;;;4957439;29;20766;-81
2021/08/21 13:56:55;;;;;;;5.60;4.67;;;29.80;99.90;;;;;;4958015;29;20482;-82
2021/08/21 13:59:21;;;;;;;4.90;4.50;;;29.70;99.90;;;;;;4957879;29;20191;-82
2021/08/21 14:01:46;;;;;;;5.47;4.97;;;29.70;99.90;;;;;;4957497;28;20527;-83
2021/08/21 14:04:12;;;;;;;4.87;4.50;;;29.70;99.90;;;;;;4957602;29;20215;-82
2021/08/21 14:06:41;;;;;;;5.73;4.53;;;29.60;99.90;;;;;;4958371;29;20181;-82
2021/08/21 14:09:08;;;;;;;5.70;4.83;;;29.60;99.90;;;;;;4958052;29;20180;-82
2021/08/21 14:11:36;;;;;;;4.70;4.37;;;29.40;99.90;;;;;;4958389;28;20842;-82
2021/08/21 14:14:06;;;;;;;5.07;4.67;;;29.50;99.90;;;;;;4959334;29;20451;-82
2021/08/21 14:16:32;;;;;;;5.10;4.60;;;29.70;99.90;;;;;;4960985;29;20876;-82
2021/08/21 14:18:58;;;;;;;5.67;4.97;;;29.70;99.90;;;;;;4961140;29;20565;-81
2021/08/21 14:21:24;;;;;;;4.87;4.57;;;29.60;99.90;;;;;;4960940;28;20515;-82
2021/08/21 14:23:50;;;;;;;5.03;4.57;;;29.30;99.90;;;;;;4960660;29;20535;-82
2021/08/21 14:26:16;;;;;;;5.37;4.87;;;29.20;99.90;;;;;;4960482;29;20733;-82
2021/08/21 14:28:41;;;;;;;4.93;4.43;;;29.20;99.90;;;;;;4960306;29;20412;-82
2021/08/21 14:31:07;;;;;;;7.20;6.17;;;29.20;99.90;;;;;;4959919;28;20240;-82
2021/08/21 14:33:33;;;;;;;5.27;4.93;;;29.30;99.90;;;;;;4958266;29;20184;-81
2021/08/21 14:35:59;;;;;;;5.33;4.83;;;29.30;99.90;;;;;;4958120;29;20176;-82
2021/08/21 14:38:25;;;;;;;5.60;5.10;;;29.40;99.90;;;;;;4957399;29;20412;-82
2021/08/21 14:40:50;;;;;;;5.70;5.30;;;29.30;99.90;;;;;;4957239;28;20212;-82
2021/08/21 14:43:16;;;;;;;11.03;5.27;;;29.30;99.90;;;;;;4958618;29;20267;-82
2021/08/21 14:45:42;;;;;;;5.93;5.03;;;29.10;99.90;;;;;;4957091;29;20258;-82
2021/08/21 14:48:07;;;;;;;4.87;4.50;;;29.00;99.90;;;;;;4958123;29;20188;-82
2021/08/21 14:50:33;;;;;;;4.90;4.50;;;29.00;99.90;;;;;;4958592;28;20204;-80
2021/08/21 14:53:03;;;;;;;5.73;5.23;;;28.80;99.90;;;;;;4958180;29;20205;-82
2021/08/21 14:55:29;;;;;;;6.60;5.63;;;28.80;99.90;;;;;;4959472;29;20239;-81
2021/08/21 14:57:54;;;;;;;5.27;4.87;;;28.80;99.90;;;;;;4958509;29;20420;-82
2021/08/21 15:00:20;;;;;;;8.47;5.70;;;28.80;99.90;;;;;;4958512;29;20595;-81
2021/08/21 15:02:45;;;;;;;6.10;5.50;;;28.70;99.90;;;;;;4957948;28;20209;-82
2021/08/21 15:05:11;;;;;;;6.30;5.33;;;28.60;99.90;;;;;;4957873;28;20615;-82
2021/08/21 15:07:37;;;;;;;10.60;6.00;;;28.60;99.90;;;;;;4958009;29;20180;-82
2021/08/21 15:10:04;;;;;;;8.67;6.33;;;28.60;99.90;;;;;;4957219;29;20216;-82
2021/08/21 15:12:30;;;;;;;5.73;5.23;;;28.50;99.90;;;;;;4957250;28;20252;-80
2021/08/21 15:14:55;;;;;;;6.30;5.70;;;28.50;99.90;;;;;;4957054;29;20416;-82
2021/08/21 15:17:22;;;;;;;6.00;5.27;;;28.40;99.90;;;;;;4956736;29;20185;-83
2021/08/21 15:19:47;;;;;;;5.50;5.20;;;28.30;99.90;;;;;;4957407;29;20587;-82
2021/08/21 15:22:13;;;;;;;9.97;5.60;;;28.30;99.90;;;;;;4957210;28;20443;-82
2021/08/21 15:24:41;;;;;;;7.40;5.17;;;28.30;99.90;;;;;;4958277;29;20488;-82
2021/08/21 15:27:08;;;;;;;5.63;5.13;;;28.20;99.90;;;;;;4957395;29;20195;-82
2021/08/21 15:29:37;;;;;;;5.73;5.23;;;28.20;99.90;;;;;;4957973;29;20408;-81
2021/08/21 15:32:03;;;;;;;5.33;4.83;;;28.20;99.90;;;;;;4957966;28;20495;-82
2021/08/21 15:34:29;;;;;;;9.43;5.47;;;28.10;99.90;;;;;;4957466;29;20499;-81
2021/08/21 15:36:55;;;;;;;6.57;5.13;;;28.00;99.90;;;;;;4957868;29;20844;-80
2021/08/21 15:39:20;;;;;;;6.47;5.87;;;28.00;99.90;;;;;;4957613;29;20276;-82
2021/08/21 15:41:46;;;;;;;5.23;4.83;;;28.00;99.90;;;;;;4958177;28;20277;-81
2021/08/21 15:44:11;;;;;;;5.87;5.47;;;27.90;99.90;;;;;;4958240;29;20187;-81
2021/08/21 15:46:37;;;;;;;6.03;5.53;;;27.90;99.90;;;;;;4957796;29;20540;-82
2021/08/21 15:49:04;;;;;;;6.40;5.50;;;27.80;99.90;;;;;;4957027;29;20300;-81
2021/08/21 15:51:30;;;;;;;5.93;5.30;;;27.70;99.90;;;;;;4956897;28;20756;-82
2021/08/21 15:53:56;;;;;;;5.63;5.03;;;27.60;99.90;;;;;;4955672;29;20416;-81
2021/08/21 15:56:22;;;;;;;7.70;5.43;;;27.60;99.90;;;;;;4956920;29;20440;-82
2021/08/21 15:58:47;;;;;;;5.90;5.23;;;27.60;99.90;;;;;;4956152;29;20188;-82
2021/08/21 16:01:13;;;;;;;5.40;4.93;;;27.60;99.90;;;;;;4956127;28;20227;-82
2021/08/21 16:03:39;;;;;;;6.00;5.50;;;27.60;99.90;;;;;;4955806;29;20551;-81
2021/08/21 16:06:05;;;;;;;7.50;6.57;;;27.60;99.90;;;;;;4956137;29;20173;-82
2021/08/21 16:08:31;;;;;;;9.90;6.70;;;27.50;99.90;;;;;;4956501;29;20501;-81
2021/08/21 16:10:57;;;;;;;6.23;5.20;;;27.50;99.90;;;;;;4956609;28;20467;-81
2021/08/21 16:13:22;;;;;;;5.30;4.70;;;27.40;99.90;;;;;;4958056;29;20408;-81
2021/08/21 16:15:48;;;;;;;5.90;5.40;;;27.30;99.90;;;;;;4957000;28;20177;-80
2021/08/21 16:18:13;;;;;;;8.20;5.07;;;27.20;99.90;;;;;;4957096;29;20184;-81
2021/08/21 16:20:40;;;;;;;5.90;5.27;;;27.20;99.90;;;;;;4957985;28;20188;-81
2021/08/21 16:23:06;;;;;;;6.10;4.37;;;27.10;99.90;;;;;;4956508;29;20180;-81
2021/08/21 16:25:33;;;;;;;5.67;5.10;;;27.10;99.90;;;;;;4958047;29;20512;-80
2021/08/21 16:28:00;;;;;;;7.13;5.43;;;27.00;99.90;;;;;;4956519;29;20412;-80
2021/08/21 16:30:25;;;;;;;7.40;4.90;;;27.10;99.90;;;;;;4955937;29;20984;-82
2021/08/21 16:32:51;;;;;;;5.67;5.17;;;27.00;99.90;;;;;;4955949;28;20460;-81
2021/08/21 16:35:16;;;;;;;6.53;5.97;;;26.90;99.90;;;;;;4956639;29;20176;-82
2021/08/21 16:37:42;;;;;;;5.13;4.70;;;26.90;99.90;;;;;;4957180;29;20180;-81
2021/08/21 16:40:09;;;;;;;5.60;5.10;;;26.90;99.90;;;;;;4954767;29;20188;-81
2021/08/21 16:42:35;;;;;;;5.60;4.93;;;26.80;99.90;;;;;;4957147;28;20588;-81
2021/08/21 16:45:02;;;;;;;15.47;14.13;;;26.70;99.90;;;;;;4957335;28;20419;-80
2021/08/21 16:47:28;;;;;;;26.27;24.17;;;26.70;99.90;;;;;;4956491;29;20925;-81
2021/08/21 16:49:53;;;;;;;12.90;11.70;;;26.50;99.90;;;;;;4957016;29;20463;-80
2021/08/21 16:52:19;;;;;;;6.53;5.93;;;26.50;99.90;;;;;;4956424;28;20196;-82
2021/08/21 16:54:44;;;;;;;5.63;4.93;;;26.50;99.90;;;;;;4957180;29;20176;-80
2021/08/21 16:57:10;;;;;;;5.60;5.10;;;26.40;99.90;;;;;;4957332;29;20185;-82
2021/08/21 16:59:35;;;;;;;5.13;4.73;;;26.30;99.90;;;;;;4957284;29;20204;-81
2021/08/21 17:02:01;;;;;;;10.43;5.50;;;26.20;99.90;;;;;;4957235;28;20543;-82
2021/08/21 17:04:26;;;;;;;5.77;5.33;;;26.20;99.90;;;;;;4957415;29;20699;-81
2021/08/21 17:06:52;;;;;;;43.43;29.07;;;26.10;99.90;;;;;;4957951;29;20173;-81
2021/08/21 17:09:17;;;;;;;37.33;32.90;;;26.10;99.90;;;;;;4956953;29;20176;-81
2021/08/21 17:11:43;;;;;;;35.97;32.47;;;26.00;99.90;;;;;;4957090;28;20213;-81
2021/08/21 17:14:08;;;;;;;8.67;7.87;;;26.00;99.90;;;;;;4957704;29;20523;-81
2021/08/21 17:16:34;;;;;;;4.87;4.47;;;25.90;99.90;;;;;;4956756;29;20181;-81
2021/08/21 17:18:59;;;;;;;6.80;5.67;;;25.80;99.90;;;;;;4957286;29;20201;-82